createdAt,value
2018-07-21T00:01:13.635Z,22.00
2018-07-21T00:03:41.298Z,21.86
2018-07-21T00:06:09.017Z,21.98
2018-07-21T00:08:36.697Z,21.77
2018-07-21T00:11:04.381Z,21.55
2018-07-21T00:13:32.062Z,21.48
2018-07-21T00:15:59.706Z,21.34
2018-07-21T00:18:27.377Z,21.28
2018-07-21T00:20:55.106Z,21.37
2018-07-21T00:23:22.789Z,21.42
2018-07-21T00:25:50.466Z,21.53
2018-07-21T00:28:18.155Z,21.67
2018-07-21T00:30:45.909Z,21.63
2018-07-21T00:33:13.553Z,21.60
2018-07-21T00:35:41.214Z,21.60
2018-07-21T00:38:08.866Z,21.51
2018-07-21T00:40:36.528Z,21.21
2018-07-21T00:43:04.252Z,21.16
2018-07-21T00:45:31.965Z,21.02
2018-07-21T00:47:59.696Z,20.97
2018-07-21T00:50:27.356Z,21.01
2018-07-21T00:52:55.014Z,20.87
2018-07-21T00:55:22.694Z,20.81
2018-07-21T00:57:50.356Z,20.91
2018-07-21T01:00:18.029Z,20.98
2018-07-21T01:02:45.713Z,21.22
2018-07-21T01:05:13.397Z,21.25
2018-07-21T01:07:41.065Z,21.22
2018-07-21T01:10:08.773Z,21.31
2018-07-21T01:12:36.795Z,21.32
2018-07-21T01:15:05.649Z,21.40
2018-07-21T01:17:33.367Z,21.42
2018-07-21T01:20:01.014Z,21.37
2018-07-21T01:22:28.693Z,21.28
2018-07-21T01:24:56.365Z,21.24
2018-07-21T01:27:24.042Z,21.33
2018-07-21T01:29:51.715Z,21.33
2018-07-21T01:32:19.535Z,20.84
2018-07-21T01:34:47.233Z,20.66
2018-07-21T01:37:14.901Z,20.59
2018-07-21T01:39:42.587Z,20.63
2018-07-21T01:42:10.242Z,20.67
2018-07-21T01:44:37.918Z,20.81
2018-07-21T01:47:05.737Z,20.64
2018-07-21T01:49:33.405Z,21.01
2018-07-21T01:52:01.062Z,20.85
2018-07-21T01:54:28.732Z,21.01
2018-07-21T01:56:56.385Z,21.01
2018-07-21T01:59:24.073Z,21.00
2018-07-21T02:01:51.747Z,20.96
2018-07-21T02:04:19.405Z,20.74
2018-07-21T02:06:47.081Z,21.04
2018-07-21T02:09:14.744Z,21.01
2018-07-21T02:11:42.474Z,21.07
2018-07-21T02:14:10.137Z,21.12
2018-07-21T02:16:37.812Z,20.06
2018-07-21T02:19:05.472Z,21.15
2018-07-21T02:21:33.385Z,21.05
2018-07-21T02:24:01.038Z,20.97
2018-07-21T02:26:28.708Z,20.68
2018-07-21T02:28:56.374Z,20.53
2018-07-21T02:31:24.068Z,20.59
2018-07-21T02:33:51.823Z,20.55
2018-07-21T02:36:19.504Z,20.39
2018-07-21T02:38:47.174Z,20.29
2018-07-21T02:41:14.945Z,20.24
2018-07-21T02:43:42.616Z,20.10
2018-07-21T02:46:10.358Z,20.01
2018-07-21T02:48:38.230Z,20.08
2018-07-21T02:51:06.027Z,20.07
2018-07-21T02:53:33.690Z,20.08
2018-07-21T02:56:01.404Z,19.86
2018-07-21T02:58:29.106Z,19.88
2018-07-21T03:00:56.803Z,19.86
2018-07-21T03:03:24.477Z,19.80
2018-07-21T03:05:52.150Z,19.87
2018-07-21T03:08:19.823Z,19.76
2018-07-21T03:10:47.527Z,19.83
2018-07-21T03:13:15.183Z,19.82
2018-07-21T03:15:42.952Z,19.68
2018-07-21T03:18:10.638Z,19.71
2018-07-21T03:20:38.339Z,19.74
2018-07-21T03:23:06.209Z,19.78
2018-07-21T03:25:34.817Z,19.85
2018-07-21T03:28:02.495Z,19.89
2018-07-21T03:30:30.179Z,20.08
2018-07-21T03:32:58.004Z,19.88
2018-07-21T03:35:25.721Z,19.93
2018-07-21T03:37:53.374Z,20.23
2018-07-21T03:40:21.040Z,20.38
2018-07-21T03:42:48.690Z,20.30
2018-07-21T03:45:16.399Z,20.46
2018-07-21T03:47:44.042Z,20.33
2018-07-21T03:50:11.696Z,20.10
2018-07-21T03:52:39.341Z,20.34
2018-07-21T03:55:07.044Z,20.46
2018-07-21T03:57:34.701Z,20.45
2018-07-21T04:00:02.489Z,20.46
2018-07-21T04:02:30.188Z,20.42
2018-07-21T04:04:57.895Z,20.23
2018-07-21T04:07:25.545Z,20.28
2018-07-21T04:09:53.221Z,20.49
2018-07-21T04:12:20.892Z,20.35
2018-07-21T04:14:48.582Z,20.20
2018-07-21T04:17:24.791Z,20.14
2018-07-21T04:19:52.547Z,20.10
2018-07-21T04:22:20.413Z,20.09
2018-07-21T04:24:48.114Z,20.05
2018-07-21T04:27:15.830Z,20.24
2018-07-21T04:29:43.505Z,20.34
2018-07-21T04:32:11.294Z,20.40
2018-07-21T04:34:39.057Z,20.39
2018-07-21T04:37:06.748Z,20.41
2018-07-21T04:39:34.488Z,20.49
2018-07-21T04:42:02.185Z,20.47
2018-07-21T04:44:29.872Z,20.25
2018-07-21T04:46:57.530Z,20.12
2018-07-21T04:49:25.257Z,20.14
2018-07-21T04:51:52.948Z,20.17
2018-07-21T04:54:20.628Z,20.12
2018-07-21T04:56:48.279Z,20.22
2018-07-21T04:59:16.047Z,20.12
2018-07-21T05:01:43.761Z,20.13
2018-07-21T05:04:11.435Z,20.39
2018-07-21T05:06:39.164Z,20.47
2018-07-21T05:09:09.045Z,20.21
2018-07-21T05:11:37.103Z,20.09
2018-07-21T05:14:05.241Z,20.09
2018-07-21T05:16:32.943Z,20.05
2018-07-21T05:19:00.634Z,20.11
2018-07-21T05:21:28.297Z,20.14
2018-07-21T05:23:55.962Z,20.21
2018-07-21T05:26:23.679Z,19.96
2018-07-21T05:28:51.378Z,19.98
2018-07-21T05:31:19.065Z,20.31
2018-07-21T05:33:46.776Z,20.31
2018-07-21T05:36:14.466Z,20.29
2018-07-21T05:38:42.254Z,20.35
2018-07-21T05:41:10.121Z,20.33
2018-07-21T05:43:37.797Z,20.33
2018-07-21T05:46:05.481Z,20.39
2018-07-21T05:48:33.140Z,20.45
2018-07-21T05:51:00.828Z,20.46
2018-07-21T05:53:28.497Z,20.33
2018-07-21T05:55:56.142Z,20.28
2018-07-21T05:58:23.789Z,20.40
2018-07-21T06:00:51.501Z,20.34
2018-07-21T06:03:19.177Z,20.39
2018-07-21T06:05:46.844Z,20.27
2018-07-21T06:08:14.519Z,20.30
2018-07-21T06:10:42.229Z,20.17
2018-07-21T06:13:09.919Z,20.31
2018-07-21T06:15:38.054Z,20.25
2018-07-21T06:18:05.777Z,20.21
2018-07-21T06:20:33.457Z,20.30
2018-07-21T06:23:01.139Z,20.14
2018-07-21T06:25:28.821Z,19.95
2018-07-21T06:27:56.846Z,19.92
2018-07-21T06:30:24.570Z,19.90
2018-07-21T06:32:52.316Z,20.03
2018-07-21T06:35:20.057Z,20.04
2018-07-21T06:37:47.807Z,20.20
2018-07-21T06:40:15.477Z,20.39
2018-07-21T06:42:43.141Z,20.48
2018-07-21T06:45:10.953Z,20.49
2018-07-21T06:47:38.614Z,20.50
2018-07-21T06:50:06.697Z,20.57
2018-07-21T06:52:34.413Z,20.61
2018-07-21T06:55:02.105Z,20.61
2018-07-21T06:57:29.791Z,20.59
2018-07-21T06:59:57.469Z,20.50
2018-07-21T07:02:25.138Z,20.39
2018-07-21T07:04:52.831Z,20.39
2018-07-21T07:07:20.509Z,20.35
2018-07-21T07:09:48.174Z,20.38
2018-07-21T07:12:15.881Z,20.43
2018-07-21T07:14:44.002Z,20.39
2018-07-21T07:17:11.796Z,20.50
2018-07-21T07:19:39.446Z,20.60
2018-07-21T07:22:07.169Z,20.66
2018-07-21T07:24:34.890Z,20.73
2018-07-21T07:27:02.606Z,20.57
2018-07-21T07:29:30.277Z,20.56
2018-07-21T07:31:57.988Z,20.64
2018-07-21T07:34:25.776Z,20.66
2018-07-21T07:36:53.545Z,20.59
2018-07-21T07:39:21.233Z,20.51
2018-07-21T07:41:48.921Z,20.62
2018-07-21T07:44:16.586Z,20.63
2018-07-21T07:46:44.246Z,20.77
2018-07-21T07:49:11.924Z,20.81
2018-07-21T07:51:39.617Z,20.81
2018-07-21T07:54:07.309Z,20.87
2018-07-21T07:56:35.038Z,20.87
2018-07-21T07:59:02.717Z,20.89
2018-07-21T08:01:30.366Z,20.87
2018-07-21T08:03:58.014Z,20.77
2018-07-21T08:06:25.741Z,20.69
2018-07-21T08:08:53.409Z,20.71
2018-07-21T08:11:21.105Z,20.78
2018-07-21T08:13:48.836Z,20.92
2018-07-21T08:16:16.532Z,20.92
2018-07-21T08:18:44.217Z,20.93
2018-07-21T08:21:12.237Z,20.93
2018-07-21T08:23:39.930Z,20.74
2018-07-21T08:26:07.642Z,20.64
2018-07-21T08:28:35.354Z,20.79
2018-07-21T08:31:03.042Z,20.80
2018-07-21T08:33:30.712Z,20.75
2018-07-21T08:35:58.393Z,20.77
2018-07-21T08:38:26.112Z,20.92
2018-07-21T08:40:53.782Z,20.91
2018-07-21T08:43:21.514Z,20.98
2018-07-21T08:45:49.231Z,20.91
2018-07-21T08:48:16.934Z,20.98
2018-07-21T08:50:44.609Z,20.87
2018-07-21T08:53:12.315Z,20.97
2018-07-21T08:55:40.084Z,20.93
2018-07-21T08:58:07.754Z,20.84
2018-07-21T09:00:35.449Z,20.99
2018-07-21T09:03:03.146Z,21.00
2018-07-21T09:05:30.792Z,20.94
2018-07-21T09:07:58.478Z,20.87
2018-07-21T09:10:26.165Z,20.92
2018-07-21T09:12:53.853Z,20.91
2018-07-21T09:15:21.585Z,21.06
2018-07-21T09:17:49.245Z,20.87
2018-07-21T09:20:16.957Z,20.66
2018-07-21T09:22:44.685Z,20.70
2018-07-21T09:25:12.374Z,20.67
2018-07-21T09:27:40.059Z,20.69
2018-07-21T09:30:07.786Z,20.72
2018-07-21T09:32:35.466Z,20.70
2018-07-21T09:35:03.226Z,20.90
2018-07-21T09:37:30.928Z,20.92
2018-07-21T09:39:58.609Z,20.95
2018-07-21T09:42:26.273Z,20.95
2018-07-21T09:44:53.930Z,21.03
2018-07-21T09:47:21.594Z,20.95
2018-07-21T09:49:49.293Z,20.92
2018-07-21T09:52:16.995Z,20.87
2018-07-21T09:54:44.854Z,20.87
2018-07-21T09:57:12.535Z,20.81
2018-07-21T09:59:40.257Z,20.71
2018-07-21T10:02:08.010Z,20.69
2018-07-21T10:04:35.710Z,20.71
2018-07-21T10:07:03.478Z,20.80
2018-07-21T10:09:31.152Z,20.95
2018-07-21T10:11:58.825Z,21.02
2018-07-21T10:14:26.629Z,21.16
2018-07-21T10:16:54.366Z,21.21
2018-07-21T10:19:22.121Z,21.26
2018-07-21T10:21:49.873Z,21.31
2018-07-21T10:24:23.073Z,21.44
2018-07-21T10:26:56.281Z,21.54
2018-07-21T10:29:23.946Z,21.59
2018-07-21T10:31:51.609Z,21.65
2018-07-21T10:34:19.316Z,21.63
2018-07-21T10:36:47.001Z,21.65
2018-07-21T10:39:14.833Z,21.62
2018-07-21T10:41:42.595Z,21.67
2018-07-21T10:44:10.269Z,21.71
2018-07-21T10:46:37.930Z,21.68
2018-07-21T10:49:06.595Z,21.73
2018-07-21T10:51:34.333Z,21.83
2018-07-21T10:54:02.027Z,21.93
2018-07-21T10:56:29.764Z,21.98
2018-07-21T10:58:57.437Z,21.98
2018-07-21T11:01:25.156Z,22.05
2018-07-21T11:03:52.833Z,22.04
2018-07-21T11:06:20.531Z,22.08
2018-07-21T11:08:48.266Z,22.08
2018-07-21T11:11:15.943Z,22.19
2018-07-21T11:13:44.541Z,22.15
2018-07-21T11:16:12.217Z,22.02
2018-07-21T11:18:39.907Z,22.06
2018-07-21T11:21:07.780Z,22.05
2018-07-21T11:23:35.422Z,22.15
2018-07-21T11:26:03.114Z,22.15
2018-07-21T11:28:31.133Z,22.20
2018-07-21T11:30:58.871Z,22.17
2018-07-21T11:33:26.553Z,22.07
2018-07-21T11:35:54.483Z,22.01
2018-07-21T11:38:22.046Z,22.02
2018-07-21T11:40:49.787Z,22.10
2018-07-21T11:43:17.432Z,22.13
2018-07-21T11:45:45.126Z,22.11
2018-07-21T11:48:12.834Z,22.01
2018-07-21T11:50:40.530Z,21.99
2018-07-21T11:53:08.219Z,21.95
2018-07-21T11:55:35.866Z,21.87
2018-07-21T11:58:03.560Z,21.69
2018-07-21T12:00:31.229Z,21.72
2018-07-21T12:02:58.901Z,21.94
2018-07-21T12:05:26.840Z,21.68
2018-07-21T12:07:54.753Z,21.55
2018-07-21T12:10:22.582Z,21.83
2018-07-21T12:12:50.439Z,21.68
2018-07-21T12:15:18.162Z,21.85
2018-07-21T12:17:45.849Z,21.87
2018-07-21T12:20:13.632Z,21.78
2018-07-21T12:22:41.281Z,21.72
2018-07-21T12:25:08.941Z,21.67
2018-07-21T12:27:36.738Z,21.71
2018-07-21T12:30:04.461Z,21.78
2018-07-21T12:32:32.130Z,21.78
2018-07-21T12:34:59.844Z,21.77
2018-07-21T12:37:27.510Z,21.80
2018-07-21T12:39:55.207Z,21.74
2018-07-21T12:42:22.949Z,21.67
2018-07-21T12:44:50.642Z,21.71
2018-07-21T12:47:18.403Z,21.71
2018-07-21T12:49:46.048Z,21.65
2018-07-21T12:52:13.726Z,21.75
2018-07-21T12:54:41.401Z,21.76
2018-07-21T12:57:09.640Z,21.73
2018-07-21T12:59:37.360Z,21.70
2018-07-21T13:02:05.100Z,21.79
2018-07-21T13:04:32.871Z,21.45
2018-07-21T13:07:00.589Z,21.74
2018-07-21T13:09:28.303Z,21.72
2018-07-21T13:11:56.038Z,21.79
2018-07-21T13:14:23.791Z,21.84
2018-07-21T13:16:51.502Z,21.85
2018-07-21T13:19:19.257Z,21.89
2018-07-21T13:21:46.984Z,21.90
2018-07-21T13:24:14.724Z,21.94
2018-07-21T13:26:42.601Z,21.93
2018-07-21T13:29:10.379Z,21.85
2018-07-21T13:31:38.131Z,21.88
2018-07-21T13:34:05.934Z,21.85
2018-07-21T13:36:33.678Z,21.83
2018-07-21T13:39:01.383Z,21.87
2018-07-21T13:41:29.173Z,21.88
2018-07-21T13:43:56.875Z,21.88
2018-07-21T13:46:24.588Z,21.95
2018-07-21T13:48:52.300Z,21.94
2018-07-21T13:51:20.081Z,21.87
2018-07-21T13:53:47.867Z,21.92
2018-07-21T13:56:15.602Z,21.96
2018-07-21T13:58:43.331Z,21.93
2018-07-21T14:01:11.080Z,21.84
2018-07-21T14:03:38.813Z,21.72
2018-07-21T14:06:06.586Z,22.00
2018-07-21T14:08:34.299Z,22.03
2018-07-21T14:11:02.046Z,21.98
2018-07-21T14:13:29.805Z,21.99
2018-07-21T14:15:58.368Z,21.83
2018-07-21T14:18:26.151Z,21.92
2018-07-21T14:20:53.901Z,21.97
2018-07-21T14:23:21.632Z,21.94
2018-07-21T14:25:49.420Z,21.90
2018-07-21T14:28:17.140Z,21.92
2018-07-21T14:30:44.898Z,22.02
2018-07-21T14:33:12.622Z,21.89
2018-07-21T14:35:40.330Z,21.89
2018-07-21T14:38:08.087Z,21.81
2018-07-21T14:40:35.810Z,21.88
2018-07-21T14:43:03.650Z,21.87
2018-07-21T14:45:31.368Z,21.86
2018-07-21T14:47:59.098Z,21.93
2018-07-21T14:50:26.794Z,21.89
2018-07-21T14:52:54.513Z,21.92
2018-07-21T14:55:22.277Z,21.86
2018-07-21T14:57:49.969Z,21.88
2018-07-21T15:00:17.646Z,21.75
2018-07-21T15:02:45.303Z,21.85
2018-07-21T15:05:12.997Z,21.86
2018-07-21T15:07:40.702Z,21.81
2018-07-21T15:10:08.455Z,21.84
2018-07-21T15:12:36.133Z,21.82
2018-07-21T15:15:04.239Z,21.81
2018-07-21T15:17:31.946Z,21.82
2018-07-21T15:19:59.671Z,21.70
2018-07-21T15:22:27.369Z,21.75
2018-07-21T15:24:55.113Z,21.68
2018-07-21T15:27:22.823Z,21.65
2018-07-21T15:29:50.562Z,21.53
2018-07-21T15:32:18.333Z,21.41
2018-07-21T15:34:46.111Z,21.55
2018-07-21T15:37:13.818Z,21.58
2018-07-21T15:39:41.534Z,21.55
2018-07-21T15:42:09.264Z,21.55
2018-07-21T15:44:37.002Z,21.53
2018-07-21T15:47:04.725Z,21.47
2018-07-21T15:49:32.492Z,21.44
2018-07-21T15:52:00.257Z,21.45
2018-07-21T15:54:27.949Z,21.40
2018-07-21T15:56:55.613Z,21.38
2018-07-21T15:59:23.268Z,21.42
2018-07-21T16:01:50.999Z,21.40
2018-07-21T16:04:18.677Z,21.37
2018-07-21T16:06:46.350Z,21.26
2018-07-21T16:09:14.099Z,21.37
2018-07-21T16:11:41.874Z,21.34
2018-07-21T16:14:09.554Z,21.24
2018-07-21T16:16:37.281Z,21.22
2018-07-21T16:19:05.177Z,21.28
2018-07-21T16:21:32.933Z,21.30
2018-07-21T16:24:00.710Z,21.27
2018-07-21T16:26:28.476Z,21.31
2018-07-21T16:28:56.265Z,21.20
2018-07-21T16:31:23.977Z,21.30
2018-07-21T16:33:51.736Z,21.33
2018-07-21T16:36:19.510Z,21.31
2018-07-21T16:38:47.250Z,21.39
2018-07-21T16:41:15.009Z,21.41
2018-07-21T16:43:42.740Z,21.41
2018-07-21T16:46:10.626Z,21.38
2018-07-21T16:48:38.338Z,21.34
2018-07-21T16:51:06.366Z,21.38
2018-07-21T16:53:34.092Z,21.26
2018-07-21T16:56:01.807Z,21.25
2018-07-21T16:58:29.616Z,21.33
2018-07-21T17:00:57.297Z,21.25
2018-07-21T17:03:25.017Z,21.16
2018-07-21T17:05:52.740Z,21.20
2018-07-21T17:08:20.497Z,21.26
2018-07-21T17:10:48.232Z,21.27
2018-07-21T17:13:16.117Z,21.25
2018-07-21T17:15:43.878Z,21.23
2018-07-21T17:18:11.575Z,21.28
2018-07-21T17:20:39.341Z,21.25
2018-07-21T17:23:07.110Z,21.27
2018-07-21T17:25:34.952Z,21.12
2018-07-21T17:28:02.948Z,21.18
2018-07-21T17:30:30.701Z,21.12
2018-07-21T17:32:58.434Z,21.09
2018-07-21T17:35:26.141Z,20.99
2018-07-21T17:37:53.876Z,21.05
2018-07-21T17:40:21.620Z,20.93
2018-07-21T17:42:49.501Z,21.03
2018-07-21T17:45:17.244Z,21.05
2018-07-21T17:47:45.078Z,21.07
2018-07-21T17:50:12.831Z,21.03
2018-07-21T17:52:40.693Z,20.78
2018-07-21T17:55:08.466Z,20.97
2018-07-21T17:57:36.185Z,20.55
2018-07-21T18:00:04.415Z,20.87
2018-07-21T18:02:32.098Z,20.76
2018-07-21T18:04:59.793Z,20.73
2018-07-21T18:07:27.644Z,20.65
2018-07-21T18:09:55.427Z,20.63
2018-07-21T18:12:23.114Z,20.69
2018-07-21T18:14:50.863Z,20.58
2018-07-21T18:17:18.588Z,20.61
2018-07-21T18:19:46.267Z,20.38
2018-07-21T18:22:14.484Z,20.46
2018-07-21T18:24:42.319Z,20.43
2018-07-21T18:27:10.030Z,20.33
2018-07-21T18:29:37.735Z,20.22
2018-07-21T18:32:05.466Z,20.20
2018-07-21T18:34:33.124Z,20.27
2018-07-21T20:19:31.989Z,19.36
2018-07-21T20:21:59.713Z,19.53
2018-07-21T20:24:27.430Z,19.30
2018-07-21T20:26:55.200Z,19.20
2018-07-21T20:29:22.867Z,19.02
2018-07-21T20:31:50.580Z,18.67
2018-07-21T20:34:18.297Z,18.81
2018-07-21T20:36:46.037Z,18.83
2018-07-21T20:39:13.750Z,18.83
2018-07-21T20:41:41.449Z,18.80
2018-07-21T20:44:09.141Z,18.95
2018-07-21T20:46:36.993Z,19.02
2018-07-21T20:49:04.765Z,19.26
2018-07-21T20:51:32.421Z,19.24
2018-07-21T20:54:00.100Z,19.24
2018-07-21T20:56:27.983Z,19.13
2018-07-21T20:58:55.756Z,19.29
2018-07-21T21:01:23.594Z,19.21
2018-07-21T21:03:51.375Z,19.21
2018-07-21T21:06:19.210Z,19.10
2018-07-21T21:08:46.951Z,19.11
2018-07-21T21:11:14.738Z,18.91
2018-07-21T21:13:42.502Z,18.85
2018-07-21T21:16:10.316Z,19.02
2018-07-21T21:18:38.112Z,19.11
2018-07-21T21:21:06.941Z,19.12
2018-07-21T21:23:34.757Z,18.85
2018-07-21T21:26:02.486Z,18.82
2018-07-21T21:28:30.245Z,18.74
2018-07-21T21:30:58.062Z,18.72
2018-07-21T21:33:25.876Z,18.86
2018-07-21T21:35:53.619Z,18.91
2018-07-21T21:38:21.365Z,18.82
2018-07-21T21:40:49.185Z,19.01
2018-07-21T21:43:16.931Z,19.07
2018-07-21T21:45:44.715Z,18.94
2018-07-21T21:48:12.483Z,18.95
2018-07-21T21:50:40.259Z,18.99
2018-07-21T21:53:08.020Z,18.93
2018-07-21T21:55:35.767Z,18.98
2018-07-21T21:58:03.626Z,18.96
2018-07-21T22:00:52.760Z,19.11
2018-07-21T22:03:20.555Z,18.17
2018-07-21T22:05:48.330Z,18.98
2018-07-21T22:08:16.111Z,18.97
2018-07-21T22:10:43.822Z,18.96
2018-07-21T22:13:11.676Z,19.00
2018-07-21T22:15:39.378Z,18.92
2018-07-21T22:18:07.127Z,18.94
2018-07-21T22:20:34.902Z,18.96
2018-07-21T22:23:02.652Z,18.98
2018-07-21T22:25:30.374Z,18.93
2018-07-21T22:27:58.146Z,18.88
2018-07-21T22:30:25.913Z,18.95
2018-07-21T22:32:53.653Z,18.87
2018-07-21T22:35:21.417Z,18.85
2018-07-21T22:37:49.440Z,18.89
2018-07-21T22:40:17.165Z,18.88
2018-07-21T22:42:45.444Z,18.88
2018-07-21T22:45:13.413Z,18.78
2018-07-21T22:47:41.207Z,18.91
2018-07-21T22:50:09.103Z,18.89
2018-07-21T22:52:36.934Z,18.60
2018-07-21T22:55:04.727Z,18.88
2018-07-21T22:57:32.648Z,18.99
2018-07-21T23:00:00.549Z,18.95
2018-07-21T23:02:28.264Z,19.01
2018-07-21T23:04:56.126Z,19.02
2018-07-21T23:07:23.889Z,18.92
2018-07-21T23:09:51.649Z,18.80
2018-07-21T23:12:19.397Z,18.77
2018-07-21T23:14:47.179Z,18.94
2018-07-21T23:17:14.925Z,18.84
2018-07-21T23:19:42.745Z,18.82
2018-07-21T23:22:10.473Z,18.79
2018-07-21T23:24:38.262Z,18.93
2018-07-21T23:27:06.004Z,18.90
2018-07-21T23:29:33.811Z,18.84
2018-07-21T23:32:01.604Z,18.23
2018-07-21T23:34:29.293Z,18.78
2018-07-21T23:36:57.085Z,18.78
2018-07-21T23:39:24.838Z,18.82
2018-07-21T23:41:52.646Z,18.67
2018-07-21T23:44:20.745Z,18.72
2018-07-21T23:46:48.518Z,18.73
2018-07-21T23:49:16.293Z,18.84
2018-07-21T23:51:44.035Z,18.87
2018-07-21T23:54:11.791Z,18.84
2018-07-21T23:56:39.582Z,18.81
2018-07-21T23:59:07.867Z,18.83
